sensor_id;sensor_type;location;lat;lon;timestamp;pressure;altitude;pressure_sealevel;temperature;humidity
27805;BME280;15183;51.350;11.102;2022-08-16T00:01:51;99192.25;;;24.85;65.44
27805;BME280;15183;51.350;11.102;2022-08-16T00:04:17;99191.78;;;24.70;65.62
27805;BME280;15183;51.350;11.102;2022-08-16T00:06:44;99194.59;;;24.62;65.34
27805;BME280;15183;51.350;11.102;2022-08-16T00:09:11;99190.16;;;24.57;65.65
27805;BME280;15183;51.350;11.102;2022-08-16T00:11:40;99193.09;;;24.52;64.93
27805;BME280;15183;51.350;11.102;2022-08-16T00:14:11;99186.00;;;24.60;65.29
27805;BME280;15183;51.350;11.102;2022-08-16T00:16:38;99198.41;;;24.61;64.82
27805;BME280;15183;51.350;11.102;2022-08-16T00:19:05;99197.53;;;24.69;64.76
27805;BME280;15183;51.350;11.102;2022-08-16T00:21:32;99178.88;;;24.55;64.58
27805;BME280;15183;51.350;11.102;2022-08-16T00:23:59;99131.09;;;24.25;64.06
27805;BME280;15183;51.350;11.102;2022-08-16T00:26:26;99165.31;;;24.42;64.89
27805;BME280;15183;51.350;11.102;2022-08-16T00:28:53;99200.91;;;24.66;64.38
27805;BME280;15183;51.350;11.102;2022-08-16T00:31:19;99196.97;;;24.63;64.73
27805;BME280;15183;51.350;11.102;2022-08-16T00:33:45;99163.16;;;24.36;64.56
27805;BME280;15183;51.350;11.102;2022-08-16T00:36:12;99194.44;;;24.58;64.38
27805;BME280;15183;51.350;11.102;2022-08-16T00:38:38;99182.34;;;24.43;64.71
27805;BME280;15183;51.350;11.102;2022-08-16T00:41:05;99169.88;;;24.17;64.91
27805;BME280;15183;51.350;11.102;2022-08-16T00:43:34;99195.75;;;24.27;64.76
27805;BME280;15183;51.350;11.102;2022-08-16T00:46:33;99192.59;;;24.25;64.39
27805;BME280;15183;51.350;11.102;2022-08-16T00:49:09;99191.31;;;24.22;64.54
27805;BME280;15183;51.350;11.102;2022-08-16T00:51:35;99194.50;;;24.24;64.49
27805;BME280;15183;51.350;11.102;2022-08-16T00:54:02;99176.03;;;24.05;64.31
27805;BME280;15183;51.350;11.102;2022-08-16T00:56:34;99203.28;;;24.21;64.15
27805;BME280;15183;51.350;11.102;2022-08-16T00:59:05;99195.16;;;24.00;64.35
27805;BME280;15183;51.350;11.102;2022-08-16T01:01:32;99197.47;;;23.89;64.52
27805;BME280;15183;51.350;11.102;2022-08-16T01:03:59;99193.66;;;23.69;64.52
27805;BME280;15183;51.350;11.102;2022-08-16T01:06:26;99188.75;;;23.41;65.03
27805;BME280;15183;51.350;11.102;2022-08-16T01:08:55;99204.16;;;23.49;64.95
27805;BME280;15183;51.350;11.102;2022-08-16T01:11:24;99204.16;;;23.49;65.15
27805;BME280;15183;51.350;11.102;2022-08-16T01:13:55;99187.94;;;23.49;65.30
27805;BME280;15183;51.350;11.102;2022-08-16T01:16:26;99220.25;;;23.67;65.34
27805;BME280;15183;51.350;11.102;2022-08-16T01:19:12;99229.22;;;23.59;65.11
27805;BME280;15183;51.350;11.102;2022-08-16T01:21:55;99221.63;;;23.52;64.88
27805;BME280;15183;51.350;11.102;2022-08-16T01:24:43;99218.56;;;23.32;64.93
27805;BME280;15183;51.350;11.102;2022-08-16T01:27:17;99220.06;;;23.12;65.86
27805;BME280;15183;51.350;11.102;2022-08-16T01:30:08;99220.13;;;22.94;65.87
27805;BME280;15183;51.350;11.102;2022-08-16T01:32:37;99222.53;;;22.96;66.67
27805;BME280;15183;51.350;11.102;2022-08-16T01:35:43;99221.25;;;22.93;66.24
27805;BME280;15183;51.350;11.102;2022-08-16T01:38:28;99208.84;;;22.92;66.45
27805;BME280;15183;51.350;11.102;2022-08-16T01:41:19;99224.22;;;23.01;66.00
27805;BME280;15183;51.350;11.102;2022-08-16T01:43:46;99229.31;;;23.02;66.26
27805;BME280;15183;51.350;11.102;2022-08-16T01:48:54;99223.41;;;23.09;65.78
27805;BME280;15183;51.350;11.102;2022-08-16T01:51:22;99216.94;;;23.01;65.44
27805;BME280;15183;51.350;11.102;2022-08-16T01:53:50;99220.13;;;22.94;66.06
27805;BME280;15183;51.350;11.102;2022-08-16T01:56:18;99215.09;;;22.84;65.77
27805;BME280;15183;51.350;11.102;2022-08-16T01:58:44;99208.59;;;22.76;66.26
27805;BME280;15183;51.350;11.102;2022-08-16T02:01:11;99207.50;;;22.68;65.78
27805;BME280;15183;51.350;11.102;2022-08-16T02:03:37;99221.63;;;22.74;66.55
27805;BME280;15183;51.350;11.102;2022-08-16T02:06:05;99192.47;;;22.59;65.94
27805;BME280;15183;51.350;11.102;2022-08-16T02:08:31;99211.31;;;22.67;65.88
27805;BME280;15183;51.350;11.102;2022-08-16T02:10:58;99213.41;;;22.62;66.19
27805;BME280;15183;51.350;11.102;2022-08-16T02:13:24;99211.38;;;22.50;66.13
27805;BME280;15183;51.350;11.102;2022-08-16T02:15:51;99207.88;;;22.40;66.39
27805;BME280;15183;51.350;11.102;2022-08-16T02:18:18;99206.63;;;22.29;66.37
27805;BME280;15183;51.350;11.102;2022-08-16T02:20:49;99202.97;;;22.25;66.76
27805;BME280;15183;51.350;11.102;2022-08-16T02:23:17;99185.22;;;22.06;66.82
27805;BME280;15183;51.350;11.102;2022-08-16T02:25:44;99207.13;;;22.14;67.02
27805;BME280;15183;51.350;11.102;2022-08-16T02:28:14;99161.91;;;21.84;67.17
27805;BME280;15183;51.350;11.102;2022-08-16T02:30:40;99209.16;;;22.08;67.12
27805;BME280;15183;51.350;11.102;2022-08-16T02:33:07;99175.41;;;21.75;67.28
27805;BME280;15183;51.350;11.102;2022-08-16T02:35:35;99195.53;;;21.95;67.41
27805;BME280;15183;51.350;11.102;2022-08-16T02:38:02;99205.53;;;22.04;67.46
27805;BME280;15183;51.350;11.102;2022-08-16T02:40:29;99204.59;;;22.08;67.17
27805;BME280;15183;51.350;11.102;2022-08-16T02:42:55;99183.34;;;21.98;67.50
27805;BME280;15183;51.350;11.102;2022-08-16T02:45:26;99218.22;;;22.21;67.16
27805;BME280;15183;51.350;11.102;2022-08-16T02:47:53;99219.81;;;22.31;66.39
27805;BME280;15183;51.350;11.102;2022-08-16T02:50:20;99216.75;;;22.41;66.21
27805;BME280;15183;51.350;11.102;2022-08-16T02:52:47;99213.75;;;22.51;65.90
27805;BME280;15183;51.350;11.102;2022-08-16T02:56:17;99194.06;;;22.51;64.87
27805;BME280;15183;51.350;11.102;2022-08-16T02:58:46;99198.34;;;22.52;64.61
27805;BME280;15183;51.350;11.102;2022-08-16T03:01:17;99217.38;;;22.64;64.75
27805;BME280;15183;51.350;11.102;2022-08-16T03:03:44;99219.75;;;22.75;64.18
27805;BME280;15183;51.350;11.102;2022-08-16T03:06:10;99229.75;;;22.74;64.25
27805;BME280;15183;51.350;11.102;2022-08-16T03:08:37;99187.72;;;22.47;64.44
27805;BME280;15183;51.350;11.102;2022-08-16T03:11:03;99243.22;;;22.83;63.96
27805;BME280;15183;51.350;11.102;2022-08-16T03:13:29;99242.56;;;22.86;63.51
27805;BME280;15183;51.350;11.102;2022-08-16T03:15:56;99233.66;;;22.86;63.01
27805;BME280;15183;51.350;11.102;2022-08-16T03:18:23;99219.75;;;22.75;62.92
27805;BME280;15183;51.350;11.102;2022-08-16T03:20:49;99190.25;;;22.52;62.79
27805;BME280;15183;51.350;11.102;2022-08-16T03:23:16;99227.84;;;22.75;62.17
27805;BME280;15183;51.350;11.102;2022-08-16T03:25:42;99238.66;;;22.75;62.21
27805;BME280;15183;51.350;11.102;2022-08-16T03:28:09;99226.44;;;22.60;62.49
27805;BME280;15183;51.350;11.102;2022-08-16T03:30:35;99221.53;;;22.53;62.43
27805;BME280;15183;51.350;11.102;2022-08-16T03:33:03;99198.84;;;22.36;62.08
27805;BME280;15183;51.350;11.102;2022-08-16T03:35:32;99245.66;;;22.67;62.19
27805;BME280;15183;51.350;11.102;2022-08-16T03:38:02;99225.50;;;22.55;62.00
27805;BME280;15183;51.350;11.102;2022-08-16T03:40:32;99244.06;;;22.66;61.95
27805;BME280;15183;51.350;11.102;2022-08-16T03:43:03;99256.09;;;22.68;62.23
27805;BME280;15183;51.350;11.102;2022-08-16T03:45:35;99260.41;;;22.69;61.83
27805;BME280;15183;51.350;11.102;2022-08-16T03:48:03;99241.22;;;22.53;62.20
27805;BME280;15183;51.350;11.102;2022-08-16T03:50:30;99259.63;;;22.60;61.86
27805;BME280;15183;51.350;11.102;2022-08-16T03:52:58;99241.84;;;22.59;62.03
27805;BME280;15183;51.350;11.102;2022-08-16T03:55:25;99243.28;;;22.57;62.47
27805;BME280;15183;51.350;11.102;2022-08-16T03:57:51;99240.59;;;22.48;62.24
27805;BME280;15183;51.350;11.102;2022-08-16T04:00:24;99245.66;;;22.49;62.07
27805;BME280;15183;51.350;11.102;2022-08-16T04:02:54;99245.66;;;22.49;62.32
27805;BME280;15183;51.350;11.102;2022-08-16T04:05:21;99254.09;;;22.57;62.40
27805;BME280;15183;51.350;11.102;2022-08-16T04:07:48;99217.41;;;22.29;61.94
27805;BME280;15183;51.350;11.102;2022-08-16T04:10:15;99266.63;;;22.61;62.07
27805;BME280;15183;51.350;11.102;2022-08-16T04:12:44;99272.81;;;22.62;61.65
27805;BME280;15183;51.350;11.102;2022-08-16T04:15:15;99271.53;;;22.59;61.76
27805;BME280;15183;51.350;11.102;2022-08-16T04:17:42;99287.41;;;22.69;62.37
27805;BME280;15183;51.350;11.102;2022-08-16T04:20:11;99252.00;;;22.53;62.40
27805;BME280;15183;51.350;11.102;2022-08-16T04:22:39;99286.16;;;22.76;62.42
27805;BME280;15183;51.350;11.102;2022-08-16T04:25:10;99270.59;;;22.64;63.02
27805;BME280;15183;51.350;11.102;2022-08-16T04:27:38;99279.63;;;22.77;63.16
27805;BME280;15183;51.350;11.102;2022-08-16T04:30:18;99301.19;;;22.94;62.92
27805;BME280;15183;51.350;11.102;2022-08-16T04:32:45;99307.34;;;23.04;62.92
27805;BME280;15183;51.350;11.102;2022-08-16T04:35:17;99303.66;;;23.17;63.17
27805;BME280;15183;51.350;11.102;2022-08-16T04:37:46;99294.38;;;23.36;63.87
27805;BME280;15183;51.350;11.102;2022-08-16T04:40:14;99285.78;;;23.42;63.78
27805;BME280;15183;51.350;11.102;2022-08-16T04:42:41;99305.75;;;23.80;64.38
27805;BME280;15183;51.350;11.102;2022-08-16T04:45:10;99307.38;;;24.03;63.98
27805;BME280;15183;51.350;11.102;2022-08-16T04:47:40;99281.59;;;24.05;64.60
27805;BME280;15183;51.350;11.102;2022-08-16T04:50:15;99309.44;;;24.48;64.45
27805;BME280;15183;51.350;11.102;2022-08-16T04:52:47;99274.31;;;24.39;64.46
27805;BME280;15183;51.350;11.102;2022-08-16T04:55:18;99296.22;;;24.80;64.25
27805;BME280;15183;51.350;11.102;2022-08-16T04:57:48;99304.06;;;24.94;63.97
27805;BME280;15183;51.350;11.102;2022-08-16T05:00:21;99312.91;;;25.16;63.84
27805;BME280;15183;51.350;11.102;2022-08-16T05:02:51;99310.22;;;25.28;64.00
27805;BME280;15183;51.350;11.102;2022-08-16T05:05:18;99258.78;;;25.07;63.75
27805;BME280;15183;51.350;11.102;2022-08-16T05:07:46;99311.47;;;25.56;63.89
27805;BME280;15183;51.350;11.102;2022-08-16T05:10:13;99314.09;;;25.77;63.77
27805;BME280;15183;51.350;11.102;2022-08-16T05:12:40;99313.38;;;25.93;63.40
27805;BME280;15183;51.350;11.102;2022-08-16T05:15:07;99313.69;;;26.04;63.00
27805;BME280;15183;51.350;11.102;2022-08-16T05:17:35;99327.47;;;26.23;62.74
27805;BME280;15183;51.350;11.102;2022-08-16T05:20:04;99301.09;;;26.24;62.98
27805;BME280;15183;51.350;11.102;2022-08-16T05:22:31;99328.97;;;26.49;63.08
27805;BME280;15183;51.350;11.102;2022-08-16T05:24:58;99309.16;;;26.49;62.83
27805;BME280;15183;51.350;11.102;2022-08-16T05:27:24;99338.69;;;26.79;62.34
27805;BME280;15183;51.350;11.102;2022-08-16T05:29:50;99320.94;;;26.69;61.74
27805;BME280;15183;51.350;11.102;2022-08-16T05:32:17;99320.31;;;26.59;61.99
27805;BME280;15183;51.350;11.102;2022-08-16T05:34:43;99340.44;;;26.71;62.04
27805;BME280;15183;51.350;11.102;2022-08-16T05:37:10;99341.22;;;26.71;62.51
27805;BME280;15183;51.350;11.102;2022-08-16T05:39:36;99342.78;;;26.72;62.37
27805;BME280;15183;51.350;11.102;2022-08-16T05:42:03;99333.81;;;26.56;62.07
27805;BME280;15183;51.350;11.102;2022-08-16T05:44:29;99347.84;;;26.58;62.67
27805;BME280;15183;51.350;11.102;2022-08-16T05:46:59;99340.97;;;26.48;62.83
27805;BME280;15183;51.350;11.102;2022-08-16T05:49:28;99355.75;;;26.63;62.45
27805;BME280;15183;51.350;11.102;2022-08-16T05:51:55;99350.31;;;26.63;62.07
27805;BME280;15183;51.350;11.102;2022-08-16T05:54:22;99322.97;;;26.43;61.94
27805;BME280;15183;51.350;11.102;2022-08-16T05:56:49;99341.97;;;26.56;61.59
27805;BME280;15183;51.350;11.102;2022-08-16T05:59:17;99358.91;;;26.65;61.09
27805;BME280;15183;51.350;11.102;2022-08-16T06:01:43;99355.50;;;26.68;61.42
27805;BME280;15183;51.350;11.102;2022-08-16T06:04:12;99352.47;;;26.57;61.07
27805;BME280;15183;51.350;11.102;2022-08-16T06:06:41;99360.81;;;26.65;60.92
27805;BME280;15183;51.350;11.102;2022-08-16T06:09:08;99348.97;;;26.57;60.72
27805;BME280;15183;51.350;11.102;2022-08-16T06:11:35;99358.06;;;26.77;60.79
27805;BME280;15183;51.350;11.102;2022-08-16T06:14:02;99340.47;;;26.87;59.98
27805;BME280;15183;51.350;11.102;2022-08-16T06:16:29;99371.22;;;27.20;60.11
27805;BME280;15183;51.350;11.102;2022-08-16T06:18:55;99353.78;;;27.37;59.94
27805;BME280;15183;51.350;11.102;2022-08-16T06:21:22;99368.44;;;27.64;58.84
27805;BME280;15183;51.350;11.102;2022-08-16T06:23:49;99339.81;;;27.70;58.64
27805;BME280;15183;51.350;11.102;2022-08-16T06:26:15;99362.66;;;28.17;58.88
27805;BME280;15183;51.350;11.102;2022-08-16T06:28:42;99368.41;;;28.52;58.40
27805;BME280;15183;51.350;11.102;2022-08-16T06:31:10;99369.66;;;28.78;57.47
27805;BME280;15183;51.350;11.102;2022-08-16T06:33:37;99373.78;;;29.11;57.43
27805;BME280;15183;51.350;11.102;2022-08-16T06:36:04;99374.31;;;29.40;57.05
27805;BME280;15183;51.350;11.102;2022-08-16T06:38:35;99361.19;;;29.49;56.60
27805;BME280;15183;51.350;11.102;2022-08-16T06:41:07;99367.34;;;29.69;55.31
27805;BME280;15183;51.350;11.102;2022-08-16T06:43:35;99377.38;;;29.88;54.77
27805;BME280;15183;51.350;11.102;2022-08-16T06:46:06;99378.28;;;29.96;54.05
27805;BME280;15183;51.350;11.102;2022-08-16T06:48:36;99382.69;;;30.04;54.35
27805;BME280;15183;51.350;11.102;2022-08-16T06:51:05;99377.31;;;30.08;53.39
27805;BME280;15183;51.350;11.102;2022-08-16T06:53:33;99386.84;;;30.22;53.18
27805;BME280;15183;51.350;11.102;2022-08-16T06:56:01;99377.91;;;30.25;53.12
27805;BME280;15183;51.350;11.102;2022-08-16T06:58:32;99378.84;;;30.40;52.85
27805;BME280;15183;51.350;11.102;2022-08-16T07:01:00;99388.31;;;30.46;51.47
27805;BME280;15183;51.350;11.102;2022-08-16T07:03:29;99383.56;;;30.39;51.47
27805;BME280;15183;51.350;11.102;2022-08-16T07:05:57;99376.88;;;30.37;50.91
27805;BME280;15183;51.350;11.102;2022-08-16T07:08:24;99388.63;;;30.41;50.65
27805;BME280;15183;51.350;11.102;2022-08-16T07:10:52;99387.44;;;30.38;50.00
27805;BME280;15183;51.350;11.102;2022-08-16T07:13:18;99390.63;;;30.44;50.51
27805;BME280;15183;51.350;11.102;2022-08-16T07:15:46;99393.19;;;30.60;50.93
27805;BME280;15183;51.350;11.102;2022-08-16T07:18:19;99387.44;;;30.69;50.30
27805;BME280;15183;51.350;11.102;2022-08-16T07:20:47;99382.97;;;30.91;50.20
27805;BME280;15183;51.350;11.102;2022-08-16T07:23:15;99397.69;;;31.17;49.69
27805;BME280;15183;51.350;11.102;2022-08-16T07:25:42;99388.75;;;31.20;49.17
27805;BME280;15183;51.350;11.102;2022-08-16T07:28:12;99398.72;;;31.43;49.48
27805;BME280;15183;51.350;11.102;2022-08-16T07:30:40;99380.84;;;31.56;49.45
27805;BME280;15183;51.350;11.102;2022-08-16T07:33:09;99394.03;;;31.96;49.26
27805;BME280;15183;51.350;11.102;2022-08-16T07:35:36;99397.34;;;32.27;48.67
27805;BME280;15183;51.350;11.102;2022-08-16T07:38:04;99386.06;;;32.46;47.72
27805;BME280;15183;51.350;11.102;2022-08-16T07:40:33;99398.72;;;32.76;47.82
27805;BME280;15183;51.350;11.102;2022-08-16T07:43:00;99395.66;;;33.03;47.43
27805;BME280;15183;51.350;11.102;2022-08-16T07:45:27;99384.66;;;33.14;46.75
27805;BME280;15183;51.350;11.102;2022-08-16T07:47:54;99387.84;;;33.34;46.14
27805;BME280;15183;51.350;11.102;2022-08-16T07:50:21;99373.34;;;33.41;45.94
27805;BME280;15183;51.350;11.102;2022-08-16T07:52:48;99364.28;;;33.62;45.70
27805;BME280;15183;51.350;11.102;2022-08-16T07:55:15;99396.81;;;34.04;44.79
27805;BME280;15183;51.350;11.102;2022-08-16T07:57:42;99390.88;;;34.20;44.70
27805;BME280;15183;51.350;11.102;2022-08-16T08:00:11;99383.34;;;34.35;43.41
27805;BME280;15183;51.350;11.102;2022-08-16T08:02:38;99397.00;;;34.68;43.52
27805;BME280;15183;51.350;11.102;2022-08-16T08:05:06;99383.53;;;34.81;42.71
27805;BME280;15183;51.350;11.102;2022-08-16T08:07:32;99391.31;;;35.00;42.58
27805;BME280;15183;51.350;11.102;2022-08-16T08:09:59;99315.19;;;34.68;42.29
27805;BME280;15183;51.350;11.102;2022-08-16T08:12:25;99390.72;;;35.24;41.61
27805;BME280;15183;51.350;11.102;2022-08-16T08:14:52;99407.19;;;35.31;41.32
27805;BME280;15183;51.350;11.102;2022-08-16T08:17:18;99411.50;;;35.35;41.15
27805;BME280;15183;51.350;11.102;2022-08-16T08:19:45;99409.13;;;35.38;40.89
27805;BME280;15183;51.350;11.102;2022-08-16T08:22:12;99414.94;;;35.47;39.91
27805;BME280;15183;51.350;11.102;2022-08-16T08:24:39;99409.50;;;35.40;40.13
27805;BME280;15183;51.350;11.102;2022-08-16T08:27:07;99402.47;;;35.31;39.76
27805;BME280;15183;51.350;11.102;2022-08-16T08:29:36;99412.75;;;35.27;39.61
27805;BME280;15183;51.350;11.102;2022-08-16T08:32:04;99413.28;;;35.08;39.30
27805;BME280;15183;51.350;11.102;2022-08-16T08:34:32;99424.66;;;35.10;39.49
27805;BME280;15183;51.350;11.102;2022-08-16T08:36:59;99410.94;;;35.06;39.30
27805;BME280;15183;51.350;11.102;2022-08-16T08:39:25;99429.28;;;35.24;39.64
27805;BME280;15183;51.350;11.102;2022-08-16T08:41:52;99434.78;;;35.27;38.41
27805;BME280;15183;51.350;11.102;2022-08-16T08:44:19;99432.47;;;35.18;38.27
27805;BME280;15183;51.350;11.102;2022-08-16T08:46:46;99424.97;;;35.23;38.84
27805;BME280;15183;51.350;11.102;2022-08-16T08:49:12;99429.09;;;35.53;38.82
27805;BME280;15183;51.350;11.102;2022-08-16T08:51:39;99431.28;;;35.72;38.56
27805;BME280;15183;51.350;11.102;2022-08-16T08:54:07;99443.78;;;35.84;37.84
27805;BME280;15183;51.350;11.102;2022-08-16T08:56:40;99417.50;;;35.72;37.12
27805;BME280;15183;51.350;11.102;2022-08-16T08:59:07;99434.34;;;35.82;37.70
27805;BME280;15183;51.350;11.102;2022-08-16T09:01:35;99436.13;;;35.99;37.31
27805;BME280;15183;51.350;11.102;2022-08-16T09:04:04;99437.94;;;36.17;36.47
27805;BME280;15183;51.350;11.102;2022-08-16T09:06:32;99441.28;;;36.35;36.60
27805;BME280;15183;51.350;11.102;2022-08-16T09:08:59;99428.13;;;36.47;36.02
27805;BME280;15183;51.350;11.102;2022-08-16T09:11:27;99431.00;;;36.71;35.24
27805;BME280;15183;51.350;11.102;2022-08-16T09:13:53;99435.97;;;36.83;35.16
27805;BME280;15183;51.350;11.102;2022-08-16T09:16:20;99425.13;;;36.96;35.19
27805;BME280;15183;51.350;11.102;2022-08-16T09:18:46;99425.00;;;37.07;35.27
27805;BME280;15183;51.350;11.102;2022-08-16T09:21:13;99414.31;;;37.09;34.78
27805;BME280;15183;51.350;11.102;2022-08-16T09:23:41;99419.31;;;37.18;34.75
27805;BME280;15183;51.350;11.102;2022-08-16T09:26:10;99418.88;;;37.19;34.40
27805;BME280;15183;51.350;11.102;2022-08-16T09:28:38;99425.69;;;37.15;34.27
27805;BME280;15183;51.350;11.102;2022-08-16T09:31:05;99426.50;;;37.12;34.17
27805;BME280;15183;51.350;11.102;2022-08-16T09:33:31;99432.13;;;37.04;34.41
27805;BME280;15183;51.350;11.102;2022-08-16T09:35:58;99436.66;;;36.91;33.68
27805;BME280;15183;51.350;11.102;2022-08-16T09:38:25;99425.81;;;36.76;33.64
27805;BME280;15183;51.350;11.102;2022-08-16T09:40:51;99418.06;;;36.64;33.83
27805;BME280;15183;51.350;11.102;2022-08-16T09:43:19;99428.13;;;36.50;33.94
27805;BME280;15183;51.350;11.102;2022-08-16T09:45:46;99417.19;;;36.40;33.67
27805;BME280;15183;51.350;11.102;2022-08-16T09:48:14;99409.38;;;36.34;34.40
27805;BME280;15183;51.350;11.102;2022-08-16T09:50:42;99418.34;;;36.42;34.13
27805;BME280;15183;51.350;11.102;2022-08-16T09:53:17;99414.19;;;36.61;34.23
27805;BME280;15183;51.350;11.102;2022-08-16T09:55:49;99415.22;;;36.71;34.02
27805;BME280;15183;51.350;11.102;2022-08-16T09:58:19;99417.00;;;36.85;33.56
27805;BME280;15183;51.350;11.102;2022-08-16T10:00:46;99415.28;;;36.95;33.46
27805;BME280;15183;51.350;11.102;2022-08-16T10:03:13;99410.41;;;37.06;33.49
27805;BME280;15183;51.350;11.102;2022-08-16T10:05:40;99404.72;;;37.17;32.13
27805;BME280;15183;51.350;11.102;2022-08-16T10:08:07;99404.22;;;37.22;31.24
27805;BME280;15183;51.350;11.102;2022-08-16T10:10:35;99399.84;;;37.25;32.04
27805;BME280;15183;51.350;11.102;2022-08-16T10:13:02;99407.19;;;37.35;31.54
27805;BME280;15183;51.350;11.102;2022-08-16T10:15:41;99405.84;;;37.44;31.99
27805;BME280;15183;51.350;11.102;2022-08-16T10:18:09;99389.69;;;37.42;31.89
27805;BME280;15183;51.350;11.102;2022-08-16T10:20:42;99395.63;;;37.41;31.41
27805;BME280;15183;51.350;11.102;2022-08-16T10:23:13;99399.56;;;37.43;31.58
27805;BME280;15183;51.350;11.102;2022-08-16T10:25:43;99387.66;;;37.46;31.31
27805;BME280;15183;51.350;11.102;2022-08-16T10:28:12;99379.78;;;37.45;31.44
27805;BME280;15183;51.350;11.102;2022-08-16T10:30:40;99389.81;;;37.59;31.45
27805;BME280;15183;51.350;11.102;2022-08-16T10:33:12;99388.72;;;37.76;31.39
27805;BME280;15183;51.350;11.102;2022-08-16T10:35:41;99392.34;;;37.93;30.84
27805;BME280;15183;51.350;11.102;2022-08-16T10:38:08;99386.16;;;38.10;30.29
27805;BME280;15183;51.350;11.102;2022-08-16T10:40:35;99387.97;;;38.16;30.84
27805;BME280;15183;51.350;11.102;2022-08-16T10:43:01;99380.47;;;38.17;30.69
27805;BME280;15183;51.350;11.102;2022-08-16T10:45:29;99382.22;;;38.27;30.62
27805;BME280;15183;51.350;11.102;2022-08-16T10:47:57;99382.50;;;38.33;30.01
27805;BME280;15183;51.350;11.102;2022-08-16T10:50:25;99371.06;;;38.31;29.83
27805;BME280;15183;51.350;11.102;2022-08-16T10:52:53;99391.41;;;38.41;29.27
27805;BME280;15183;51.350;11.102;2022-08-16T10:55:20;99387.75;;;38.47;29.31
27805;BME280;15183;51.350;11.102;2022-08-16T10:57:47;99385.16;;;38.57;29.39
27805;BME280;15183;51.350;11.102;2022-08-16T11:00:17;99380.13;;;38.51;29.08
27805;BME280;15183;51.350;11.102;2022-08-16T11:02:44;99395.38;;;38.60;29.72
27805;BME280;15183;51.350;11.102;2022-08-16T11:05:15;99388.50;;;38.68;29.15
27805;BME280;15183;51.350;11.102;2022-08-16T11:07:48;99386.75;;;38.74;28.69
27805;BME280;15183;51.350;11.102;2022-08-16T11:10:18;99392.19;;;38.61;28.21
27805;BME280;15183;51.350;11.102;2022-08-16T11:12:45;99398.47;;;38.45;29.10
27805;BME280;15183;51.350;11.102;2022-08-16T11:15:11;99390.38;;;38.14;28.27
27805;BME280;15183;51.350;11.102;2022-08-16T11:17:38;99398.00;;;37.86;28.58
27805;BME280;15183;51.350;11.102;2022-08-16T11:20:08;99396.88;;;37.63;29.24
27805;BME280;15183;51.350;11.102;2022-08-16T11:22:39;99388.50;;;37.43;29.19
27805;BME280;15183;51.350;11.102;2022-08-16T11:25:09;99382.31;;;37.35;28.63
27805;BME280;15183;51.350;11.102;2022-08-16T11:27:36;99396.59;;;37.30;28.73
27805;BME280;15183;51.350;11.102;2022-08-16T11:30:04;99394.00;;;37.19;29.20
27805;BME280;15183;51.350;11.102;2022-08-16T11:32:32;99394.84;;;37.16;29.21
27805;BME280;15183;51.350;11.102;2022-08-16T11:35:03;99400.34;;;37.20;29.71
27805;BME280;15183;51.350;11.102;2022-08-16T11:37:29;99395.56;;;37.20;29.33
27805;BME280;15183;51.350;11.102;2022-08-16T11:39:58;99401.81;;;37.25;29.51
27805;BME280;15183;51.350;11.102;2022-08-16T11:42:24;99406.09;;;37.29;29.74
27805;BME280;15183;51.350;11.102;2022-08-16T11:44:51;99397.69;;;37.36;29.46
27805;BME280;15183;51.350;11.102;2022-08-16T11:47:17;99405.09;;;37.43;29.09
27805;BME280;15183;51.350;11.102;2022-08-16T11:49:43;99410.81;;;37.56;29.12
27805;BME280;15183;51.350;11.102;2022-08-16T11:52:10;99406.34;;;37.62;28.76
27805;BME280;15183;51.350;11.102;2022-08-16T11:54:37;99402.66;;;37.69;28.36
27805;BME280;15183;51.350;11.102;2022-08-16T11:57:05;99394.66;;;37.75;28.71
27805;BME280;15183;51.350;11.102;2022-08-16T11:59:31;99401.13;;;37.88;28.89
27805;BME280;15183;51.350;11.102;2022-08-16T12:01:59;99389.72;;;37.86;28.48
27805;BME280;15183;51.350;11.102;2022-08-16T12:04:26;99396.78;;;37.87;27.91
27805;BME280;15183;51.350;11.102;2022-08-16T12:06:53;99399.06;;;37.72;28.03
27805;BME280;15183;51.350;11.102;2022-08-16T12:09:19;99392.38;;;37.46;28.15
27805;BME280;15183;51.350;11.102;2022-08-16T12:11:46;99391.22;;;37.23;28.31
27805;BME280;15183;51.350;11.102;2022-08-16T12:14:12;99395.03;;;37.05;28.39
27805;BME280;15183;51.350;11.102;2022-08-16T12:16:39;99387.28;;;36.93;28.85
27805;BME280;15183;51.350;11.102;2022-08-16T12:19:07;99385.31;;;36.93;28.92
27805;BME280;15183;51.350;11.102;2022-08-16T12:21:34;99389.81;;;37.11;28.37
27805;BME280;15183;51.350;11.102;2022-08-16T12:24:00;99391.31;;;37.16;27.84
27805;BME280;15183;51.350;11.102;2022-08-16T12:26:28;99391.59;;;36.98;27.69
27805;BME280;15183;51.350;11.102;2022-08-16T12:28:54;99375.66;;;36.82;28.63
27805;BME280;15183;51.350;11.102;2022-08-16T12:31:21;99379.53;;;36.84;28.23
27805;BME280;15183;51.350;11.102;2022-08-16T12:33:48;99380.06;;;36.75;28.25
27805;BME280;15183;51.350;11.102;2022-08-16T12:36:14;99386.25;;;36.83;28.16
27805;BME280;15183;51.350;11.102;2022-08-16T12:38:42;99381.38;;;36.95;28.73
27805;BME280;15183;51.350;11.102;2022-08-16T12:41:09;99384.97;;;37.19;27.90
27805;BME280;15183;51.350;11.102;2022-08-16T12:43:36;99374.91;;;37.29;27.77
27805;BME280;15183;51.350;11.102;2022-08-16T12:46:04;99386.63;;;37.36;27.53
27805;BME280;15183;51.350;11.102;2022-08-16T12:48:32;99373.59;;;37.37;27.44
27805;BME280;15183;51.350;11.102;2022-08-16T12:51:19;99371.69;;;37.34;29.14
27805;BME280;15183;51.350;11.102;2022-08-16T12:53:48;99370.28;;;37.46;28.54
27805;BME280;15183;51.350;11.102;2022-08-16T12:56:18;99370.28;;;37.46;28.23
27805;BME280;15183;51.350;11.102;2022-08-16T12:58:47;99367.16;;;37.44;27.53
27805;BME280;15183;51.350;11.102;2022-08-16T13:01:18;99358.63;;;37.34;27.54